createdAt,value
2019-01-31T00:01:51.855Z,74.58
2019-01-31T00:04:58.229Z,74.75
2019-01-31T00:07:52.850Z,74.68
2019-01-31T00:10:42.975Z,74.53
2019-01-31T00:13:20.179Z,75.50
2019-01-31T00:16:26.499Z,75.52
2019-01-31T00:19:30.999Z,73.92
2019-01-31T00:22:37.320Z,75.01
2019-01-31T00:25:21.183Z,73.80
2019-01-31T00:28:23.891Z,73.25
2019-01-31T00:31:14.262Z,73.94
2019-01-31T00:34:21.092Z,73.88
2019-01-31T00:37:06.069Z,74.50
2019-01-31T00:40:12.408Z,74.21
2019-01-31T00:43:04.920Z,74.24
2019-01-31T00:46:28.999Z,73.95
2019-01-31T00:49:38.192Z,73.79
2019-01-31T00:52:44.422Z,73.45
2019-01-31T00:55:34.974Z,73.88
2019-01-31T00:58:47.348Z,73.64
2019-01-31T01:02:03.145Z,73.35
2019-01-31T01:05:24.474Z,73.89
2019-01-31T01:08:16.104Z,73.97
2019-01-31T01:11:22.476Z,73.39
2019-01-31T01:14:28.771Z,73.35
2019-01-31T01:17:27.942Z,72.97
2019-01-31T01:20:40.099Z,73.43
2019-01-31T01:23:46.370Z,73.89
2019-01-31T01:26:55.607Z,74.21
2019-01-31T01:30:01.903Z,74.51
2019-01-31T01:33:08.281Z,72.83
2019-01-31T01:35:46.886Z,72.77
2019-01-31T01:39:00.663Z,72.64
2019-01-31T01:41:40.666Z,73.08
2019-01-31T01:44:51.438Z,73.00
2019-01-31T01:47:37.158Z,73.03
2019-01-31T01:50:31.796Z,72.90
2019-01-31T01:53:38.062Z,72.75
2019-01-31T01:56:42.254Z,73.80
2019-01-31T01:59:47.240Z,73.50
2019-01-31T02:02:48.384Z,73.64
2019-01-31T02:06:09.736Z,73.94
2019-01-31T02:09:30.172Z,73.42
2019-01-31T02:12:25.318Z,73.74
2019-01-31T02:15:31.580Z,74.20
2019-01-31T02:18:15.012Z,74.06
2019-01-31T02:21:19.058Z,74.46
2019-01-31T02:24:25.385Z,73.57
2019-01-31T02:27:31.620Z,73.36
2019-01-31T02:30:37.901Z,74.21
2019-01-31T02:33:44.261Z,74.60
2019-01-31T02:36:59.689Z,74.34
2019-01-31T02:40:06.014Z,73.54
2019-01-31T02:42:55.950Z,74.64
2019-01-31T02:46:26.446Z,74.26
2019-01-31T02:49:23.242Z,75.34
2019-01-31T02:52:25.665Z,74.58
2019-01-31T02:55:20.626Z,74.54
2019-01-31T02:58:31.067Z,75.41
2019-01-31T03:01:08.926Z,74.03
2019-01-31T03:03:48.342Z,73.50
2019-01-31T03:06:39.876Z,76.10
2019-01-31T03:09:16.364Z,75.32
2019-01-31T03:11:56.336Z,75.16
2019-01-31T03:14:45.797Z,75.06
2019-01-31T03:18:10.314Z,74.07
2019-01-31T03:21:24.271Z,73.99
2019-01-31T03:24:33.541Z,74.58
2019-01-31T03:27:41.057Z,74.46
2019-01-31T03:31:03.864Z,74.51
2019-01-31T03:33:59.734Z,75.71
2019-01-31T03:37:07.684Z,75.91
2019-01-31T03:40:16.375Z,74.33
2019-01-31T03:43:24.601Z,75.11
2019-01-31T03:46:30.861Z,74.16
2019-01-31T03:49:30.815Z,74.63
2019-01-31T03:52:37.060Z,74.59
2019-01-31T03:55:41.889Z,73.53
2019-01-31T03:58:20.398Z,74.82
2019-01-31T04:01:29.637Z,74.82
2019-01-31T04:04:03.375Z,73.61
2019-01-31T04:06:34.858Z,73.88
2019-01-31T04:11:51.500Z,74.11
2019-01-31T04:14:19.521Z,74.27
2019-01-31T04:16:47.520Z,74.42
2019-01-31T04:19:15.480Z,74.99
2019-01-31T04:21:43.528Z,74.42
2019-01-31T04:24:11.527Z,73.94
2019-01-31T04:26:39.522Z,74.41
2019-01-31T04:29:07.527Z,75.13
2019-01-31T04:31:35.573Z,74.46
2019-01-31T04:34:03.804Z,74.72
2019-01-31T04:36:31.859Z,75.50
2019-01-31T04:38:59.853Z,74.58
2019-01-31T04:41:27.864Z,74.37
2019-01-31T04:43:55.875Z,75.36
2019-01-31T04:46:23.975Z,74.73
2019-01-31T04:48:51.940Z,74.66
2019-01-31T04:51:19.938Z,74.95
2019-01-31T04:53:47.942Z,74.75
2019-01-31T04:56:15.991Z,73.48
2019-01-31T04:58:44.023Z,73.47
2019-01-31T05:01:12.017Z,73.36
2019-01-31T05:03:40.026Z,73.82
2019-01-31T05:06:08.067Z,72.98
2019-01-31T05:08:36.100Z,72.83
2019-01-31T05:11:04.153Z,74.90
2019-01-31T05:13:32.174Z,75.56
2019-01-31T05:16:03.525Z,76.97
2019-01-31T05:18:30.040Z,76.88
2019-01-31T05:20:58.002Z,75.05
2019-01-31T05:23:26.056Z,73.30
2019-01-31T05:25:54.086Z,73.49
2019-01-31T05:28:22.174Z,75.25
2019-01-31T05:30:50.204Z,75.71
2019-01-31T05:33:18.480Z,78.54
2019-01-31T05:35:46.520Z,76.00
2019-01-31T05:38:17.377Z,75.67
2019-01-31T05:40:55.239Z,76.94
2019-01-31T05:43:15.515Z,78.34
2019-01-31T05:45:43.533Z,79.44
2019-01-31T05:48:11.702Z,79.83
2019-01-31T05:50:39.663Z,79.55
2019-01-31T05:53:07.681Z,79.08
2019-01-31T05:55:35.745Z,79.54
2019-01-31T05:58:03.813Z,79.35
2019-01-31T06:00:36.963Z,80.01
2019-01-31T06:03:05.015Z,79.95
2019-01-31T06:05:33.033Z,80.25
2019-01-31T06:08:01.097Z,80.20
2019-01-31T06:10:29.105Z,79.51
2019-01-31T06:12:57.075Z,76.48
2019-01-31T06:15:25.178Z,76.36
2019-01-31T06:17:56.728Z,75.01
2019-01-31T06:20:25.574Z,73.98
2019-01-31T06:22:53.590Z,74.14
2019-01-31T06:25:22.034Z,75.09
2019-01-31T06:27:51.443Z,74.74
2019-01-31T06:30:19.460Z,73.76
2019-01-31T06:32:47.565Z,74.86
2019-01-31T06:35:15.604Z,76.20
2019-01-31T06:37:43.611Z,74.82
2019-01-31T06:40:14.230Z,75.45
2019-01-31T06:42:42.198Z,76.21
2019-01-31T06:45:12.869Z,76.12
2019-01-31T06:47:40.899Z,73.17
2019-01-31T06:50:09.175Z,74.77
2019-01-31T06:52:37.247Z,74.18
2019-01-31T06:55:05.911Z,74.81
2019-01-31T06:57:33.987Z,78.42
2019-01-31T07:00:02.101Z,76.31
2019-01-31T07:02:30.185Z,78.23
2019-01-31T07:04:58.303Z,77.49
2019-01-31T07:07:26.382Z,75.70
2019-01-31T07:09:54.423Z,79.30
2019-01-31T07:12:22.983Z,79.72
2019-01-31T07:14:51.033Z,75.41
2019-01-31T07:17:18.913Z,77.21
2019-01-31T07:19:47.047Z,76.27
2019-01-31T07:22:15.048Z,75.69
2019-01-31T07:24:43.086Z,78.64
2019-01-31T07:27:11.108Z,79.83
2019-01-31T07:29:39.160Z,80.61
2019-01-31T07:32:07.225Z,78.03
2019-01-31T07:34:35.372Z,75.86
2019-01-31T07:37:03.473Z,78.69
2019-01-31T07:39:31.526Z,78.08
2019-01-31T07:41:59.713Z,80.06
2019-01-31T07:44:27.776Z,76.81
2019-01-31T07:46:55.876Z,78.36
2019-01-31T07:49:23.892Z,79.78
2019-01-31T07:51:51.946Z,78.47
2019-01-31T07:54:20.073Z,80.17
2019-01-31T07:56:48.170Z,80.49
2019-01-31T07:59:16.375Z,81.08
2019-01-31T08:01:44.422Z,81.05
2019-01-31T08:04:12.489Z,80.82
2019-01-31T08:06:40.497Z,76.35
2019-01-31T08:09:10.121Z,77.77
2019-01-31T08:11:38.092Z,80.21
2019-01-31T08:14:06.233Z,80.03
2019-01-31T08:16:34.409Z,80.27
2019-01-31T08:19:02.593Z,80.27
2019-01-31T08:21:30.933Z,80.14
2019-01-31T08:23:59.073Z,76.89
2019-01-31T08:26:27.144Z,78.48
2019-01-31T08:28:55.264Z,76.88
2019-01-31T08:31:23.403Z,78.32
2019-01-31T08:33:51.515Z,78.67
2019-01-31T08:36:19.814Z,77.79
2019-01-31T08:38:47.829Z,77.82
2019-01-31T08:41:15.886Z,77.54
2019-01-31T08:43:46.645Z,77.05
2019-01-31T08:46:14.522Z,77.08
2019-01-31T08:48:42.901Z,76.28
2019-01-31T08:51:11.014Z,76.42
2019-01-31T08:53:39.043Z,76.09
2019-01-31T08:56:07.102Z,74.60
2019-01-31T08:58:35.244Z,74.57
2019-01-31T09:01:03.566Z,74.01
2019-01-31T09:03:31.804Z,72.32
2019-01-31T09:05:59.942Z,73.40
2019-01-31T09:08:28.130Z,73.85
2019-01-31T09:10:56.229Z,73.71
2019-01-31T09:13:26.586Z,73.07
2019-01-31T09:15:54.736Z,73.63
2019-01-31T09:18:22.853Z,73.89
2019-01-31T09:21:12.359Z,74.13
2019-01-31T09:24:11.811Z,73.88
2019-01-31T09:27:18.085Z,73.07
2019-01-31T09:30:24.402Z,73.13
2019-01-31T09:33:46.146Z,75.42
2019-01-31T09:36:41.243Z,74.37
2019-01-31T09:39:38.197Z,74.38
2019-01-31T09:42:28.607Z,71.73
2019-01-31T09:45:32.562Z,75.36
2019-01-31T09:48:32.848Z,74.23
2019-01-31T09:51:42.318Z,74.43
2019-01-31T09:54:55.105Z,72.90
2019-01-31T09:58:01.455Z,72.93
2019-01-31T10:01:02.523Z,72.75
2019-01-31T10:03:55.929Z,71.37
2019-01-31T10:07:02.980Z,70.86
2019-01-31T10:10:11.445Z,71.61
2019-01-31T10:13:12.432Z,69.88
2019-01-31T10:16:11.272Z,67.81
2019-01-31T10:19:06.698Z,69.65
2019-01-31T10:22:03.698Z,65.89
2019-01-31T10:25:18.804Z,64.27
2019-01-31T10:28:30.529Z,65.35
2019-01-31T10:31:38.488Z,69.55
2019-01-31T10:34:46.229Z,66.54
2019-01-31T10:37:37.647Z,65.34
2019-01-31T10:40:52.913Z,65.56
2019-01-31T10:43:37.321Z,70.17
2019-01-31T10:46:39.656Z,70.48
2019-01-31T10:49:21.353Z,65.62
2019-01-31T10:52:36.695Z,70.27
2019-01-31T10:55:39.554Z,70.73
2019-01-31T10:58:51.665Z,68.23
2019-01-31T11:01:31.901Z,68.95
2019-01-31T11:04:28.507Z,68.25
2019-01-31T11:07:40.768Z,66.29
2019-01-31T11:10:47.140Z,70.01
2019-01-31T11:13:47.015Z,69.61
2019-01-31T11:16:37.929Z,66.71
2019-01-31T11:19:56.198Z,64.28
2019-01-31T11:23:04.206Z,66.84
2019-01-31T11:26:13.470Z,69.73
2019-01-31T11:29:15.874Z,66.87
2019-01-31T11:32:14.645Z,63.29
2019-01-31T11:35:20.023Z,69.25
2019-01-31T11:37:58.788Z,66.36
2019-01-31T11:41:05.169Z,66.37
2019-01-31T11:44:18.227Z,70.36
2019-01-31T11:47:17.226Z,69.57
2019-01-31T11:50:22.421Z,69.62
2019-01-31T11:53:28.722Z,63.16
2019-01-31T11:56:22.675Z,69.98
2019-01-31T11:59:05.308Z,62.39
2019-01-31T12:01:34.502Z,68.65
2019-01-31T12:04:21.858Z,69.65
2019-01-31T12:06:50.607Z,69.54
2019-01-31T12:09:21.967Z,70.29
2019-01-31T12:11:50.395Z,68.52
2019-01-31T12:14:19.002Z,68.18
2019-01-31T12:16:47.400Z,68.54
2019-01-31T12:19:15.484Z,59.79
2019-01-31T12:21:43.481Z,69.45
2019-01-31T12:24:16.440Z,68.79
2019-01-31T12:26:41.635Z,68.68
2019-01-31T12:29:09.808Z,68.84
2019-01-31T12:31:37.863Z,68.00
2019-01-31T12:34:05.908Z,68.25
2019-01-31T12:36:34.064Z,68.07
2019-01-31T12:39:02.800Z,67.77
2019-01-31T12:41:31.023Z,67.89
2019-01-31T12:43:59.178Z,67.35
2019-01-31T12:46:27.249Z,67.36
2019-01-31T12:48:55.389Z,67.21
2019-01-31T12:51:23.581Z,63.71
2019-01-31T12:53:51.628Z,67.10
2019-01-31T12:56:19.740Z,61.77
2019-01-31T12:58:47.936Z,65.52
2019-01-31T13:01:16.044Z,67.47
2019-01-31T13:03:44.061Z,67.53
2019-01-31T13:06:12.356Z,66.82
2019-01-31T13:08:40.638Z,68.57
2019-01-31T13:11:08.640Z,68.12
2019-01-31T13:13:45.954Z,67.77
2019-01-31T13:16:06.813Z,54.29
2019-01-31T13:18:34.932Z,66.32
2019-01-31T13:21:02.970Z,68.63
2019-01-31T13:23:31.043Z,68.06
2019-01-31T13:25:59.170Z,68.50
2019-01-31T13:28:27.258Z,68.31
2019-01-31T13:30:55.577Z,67.83
2019-01-31T13:33:24.114Z,67.96
2019-01-31T13:35:52.226Z,68.01
2019-01-31T13:38:20.441Z,68.26
2019-01-31T13:40:48.458Z,68.47
2019-01-31T13:43:16.730Z,67.98
2019-01-31T13:45:44.949Z,68.80
2019-01-31T13:48:15.033Z,68.70
2019-01-31T13:50:43.113Z,64.35
2019-01-31T13:53:11.246Z,69.55
2019-01-31T13:55:39.380Z,69.03
2019-01-31T13:58:10.062Z,67.29
2019-01-31T14:00:37.440Z,61.76
2019-01-31T14:03:05.787Z,68.08
2019-01-31T14:05:33.982Z,69.49
2019-01-31T14:08:02.159Z,69.57
2019-01-31T14:10:30.272Z,64.82
2019-01-31T14:12:58.434Z,69.25
2019-01-31T14:15:45.649Z,68.87
2019-01-31T14:18:14.008Z,57.97
2019-01-31T14:20:42.099Z,69.52
2019-01-31T14:23:10.236Z,65.56
2019-01-31T14:25:38.538Z,68.80
2019-01-31T14:28:06.712Z,68.36
2019-01-31T14:30:36.708Z,69.22
2019-01-31T14:33:26.011Z,68.66
2019-01-31T14:35:54.642Z,68.54
2019-01-31T14:38:22.685Z,69.41
2019-01-31T14:40:50.842Z,60.36
2019-01-31T14:43:18.841Z,69.50
2019-01-31T14:45:46.839Z,68.41
2019-01-31T14:48:14.924Z,69.11
2019-01-31T14:50:43.001Z,69.29
2019-01-31T14:53:11.343Z,69.39
2019-01-31T14:55:39.421Z,67.40
2019-01-31T14:58:09.638Z,68.40
2019-01-31T15:00:37.899Z,69.26
2019-01-31T15:03:06.347Z,68.50
2019-01-31T15:05:36.770Z,69.75
2019-01-31T15:08:04.384Z,69.60
2019-01-31T15:10:33.253Z,69.92
2019-01-31T15:13:01.498Z,69.75
2019-01-31T15:15:29.674Z,68.68
2019-01-31T15:17:57.727Z,67.52
2019-01-31T15:20:40.210Z,63.90
2019-01-31T15:23:08.415Z,70.12
2019-01-31T15:25:36.608Z,69.69
2019-01-31T15:28:05.115Z,69.20
2019-01-31T15:30:34.258Z,69.93
2019-01-31T15:33:03.194Z,68.20
2019-01-31T15:35:31.430Z,65.82
2019-01-31T15:37:59.711Z,69.61
2019-01-31T15:40:30.891Z,69.68
2019-01-31T15:42:58.876Z,69.70
2019-01-31T15:45:27.230Z,69.75
2019-01-31T15:47:56.580Z,68.15
2019-01-31T15:50:25.153Z,69.74
2019-01-31T15:52:53.214Z,69.98
2019-01-31T15:55:21.776Z,67.98
2019-01-31T15:57:49.909Z,67.57
2019-01-31T16:00:32.587Z,66.47
2019-01-31T16:03:00.756Z,67.77
2019-01-31T16:05:28.897Z,65.42
2019-01-31T16:07:57.230Z,60.20
2019-01-31T16:10:25.393Z,70.21
2019-01-31T16:12:53.638Z,69.31
2019-01-31T16:15:21.782Z,70.08
2019-01-31T16:17:52.450Z,65.97
2019-01-31T16:20:19.806Z,71.60
2019-01-31T16:22:48.879Z,71.19
2019-01-31T16:25:17.056Z,71.77
2019-01-31T16:27:45.430Z,71.63
2019-01-31T16:30:14.108Z,71.30
2019-01-31T16:32:42.558Z,70.86
2019-01-31T16:35:12.296Z,67.72
2019-01-31T16:37:40.605Z,71.47
2019-01-31T16:40:10.998Z,71.49
2019-01-31T16:42:39.557Z,71.24
2019-01-31T16:45:09.773Z,71.21
2019-01-31T16:47:37.815Z,65.41
2019-01-31T16:50:08.407Z,71.16
2019-01-31T16:52:37.052Z,71.02
2019-01-31T16:55:06.310Z,70.92
2019-01-31T16:57:34.454Z,70.93
2019-01-31T17:00:02.594Z,70.48
2019-01-31T17:02:30.718Z,70.74
2019-01-31T17:04:58.906Z,70.38
2019-01-31T17:07:27.050Z,70.66
2019-01-31T17:09:55.303Z,70.53
2019-01-31T17:12:23.465Z,70.35
2019-01-31T17:14:51.844Z,66.49
2019-01-31T17:17:20.344Z,70.59
2019-01-31T17:19:48.452Z,69.79
2019-01-31T17:22:16.531Z,70.04
2019-01-31T17:24:44.750Z,70.26
2019-01-31T17:27:12.929Z,70.31
2019-01-31T17:29:41.472Z,70.04
2019-01-31T17:32:09.627Z,67.11
2019-01-31T17:34:37.802Z,67.18
2019-01-31T17:37:06.344Z,67.46
2019-01-31T17:39:34.530Z,69.87
2019-01-31T17:42:04.347Z,69.74
2019-01-31T17:44:32.910Z,69.60
2019-01-31T17:47:01.550Z,69.78
2019-01-31T17:49:29.981Z,69.50
2019-01-31T17:54:32.363Z,70.08
2019-01-31T17:57:01.813Z,69.80
2019-01-31T17:59:32.334Z,67.32
2019-01-31T18:02:00.859Z,66.42
2019-01-31T18:04:28.960Z,69.92
2019-01-31T18:06:57.092Z,69.96
2019-01-31T18:09:25.258Z,63.32
2019-01-31T18:11:53.375Z,69.85
2019-01-31T18:14:21.584Z,64.02
2019-01-31T18:16:50.010Z,69.48
2019-01-31T18:19:18.370Z,69.90
2019-01-31T18:21:46.689Z,66.53
2019-01-31T18:24:15.043Z,69.73
2019-01-31T18:26:43.846Z,70.25
2019-01-31T18:29:12.267Z,69.88
2019-01-31T18:31:40.576Z,69.61
2019-01-31T18:34:09.557Z,70.02
2019-01-31T18:36:38.609Z,64.08
2019-01-31T18:39:10.544Z,69.50
2019-01-31T18:41:39.686Z,69.78
2019-01-31T18:44:08.140Z,69.82
2019-01-31T18:46:37.112Z,66.85
2019-01-31T18:49:08.482Z,67.86
2019-01-31T18:51:37.513Z,68.42
2019-01-31T18:54:06.945Z,69.80
2019-01-31T18:56:36.698Z,66.76
2019-01-31T18:59:05.350Z,68.27
2019-01-31T19:01:34.681Z,70.01
2019-01-31T19:04:03.753Z,70.02
2019-01-31T19:06:34.950Z,70.07
2019-01-31T19:09:05.581Z,69.88
2019-01-31T19:11:34.511Z,68.00
2019-01-31T19:14:03.753Z,69.95
2019-01-31T19:16:32.495Z,69.63
2019-01-31T19:19:01.445Z,69.72
2019-01-31T19:21:30.909Z,70.07
2019-01-31T19:23:59.354Z,68.75
2019-01-31T19:26:27.655Z,70.01
2019-01-31T19:28:57.468Z,65.74
2019-01-31T19:31:27.128Z,68.70
2019-01-31T19:33:57.446Z,69.56
2019-01-31T19:36:31.062Z,69.45
2019-01-31T19:39:01.076Z,65.02
2019-01-31T19:41:31.034Z,68.67
2019-01-31T19:44:00.465Z,70.23
2019-01-31T19:46:29.602Z,69.96
2019-01-31T19:48:59.000Z,69.84
2019-01-31T19:51:28.586Z,69.70
2019-01-31T19:53:58.175Z,69.50
2019-01-31T19:56:27.245Z,68.89
2019-01-31T19:58:56.759Z,68.31
2019-01-31T20:01:25.602Z,69.99
2019-01-31T20:03:54.714Z,69.84
2019-01-31T20:06:24.635Z,70.20
2019-01-31T20:08:53.893Z,69.76
2019-01-31T20:11:23.268Z,68.23
2019-01-31T20:13:52.367Z,69.53
2019-01-31T20:16:29.193Z,69.99
2019-01-31T20:18:53.412Z,65.40
2019-01-31T20:21:23.375Z,69.54
2019-01-31T20:23:53.045Z,69.66
2019-01-31T20:26:21.858Z,69.78
2019-01-31T20:28:53.524Z,69.28
2019-01-31T20:31:23.062Z,68.91
2019-01-31T20:33:53.788Z,64.06
2019-01-31T20:36:21.994Z,67.13
2019-01-31T20:38:51.402Z,68.68
2019-01-31T20:41:20.261Z,69.08
2019-01-31T20:43:49.284Z,69.30
2019-01-31T20:46:18.437Z,68.93
2019-01-31T20:48:48.123Z,69.17
2019-01-31T20:51:17.285Z,67.71
2019-01-31T20:53:45.925Z,69.87
2019-01-31T20:56:15.063Z,69.98
2019-01-31T20:58:44.810Z,68.96
2019-01-31T21:01:13.619Z,69.58
2019-01-31T21:03:42.191Z,69.91
2019-01-31T21:06:11.220Z,69.61
2019-01-31T21:08:40.599Z,69.74
2019-01-31T21:11:10.082Z,70.16
2019-01-31T21:13:40.369Z,69.92
2019-01-31T21:16:10.099Z,69.91
2019-01-31T21:18:39.047Z,69.28
2019-01-31T21:21:08.272Z,65.68
2019-01-31T21:23:37.901Z,69.68
2019-01-31T21:26:06.743Z,69.86
2019-01-31T21:28:35.698Z,69.82
2019-01-31T21:31:04.756Z,70.08
2019-01-31T21:33:33.457Z,69.09
2019-01-31T21:36:01.756Z,69.88
2019-01-31T21:38:30.328Z,69.93
2019-01-31T21:40:58.881Z,68.02
2019-01-31T21:43:27.102Z,66.55
2019-01-31T21:45:55.348Z,69.33
2019-01-31T21:48:23.470Z,69.56
2019-01-31T21:50:51.911Z,69.79
2019-01-31T21:53:21.327Z,69.69
2019-01-31T21:55:50.040Z,69.96
2019-01-31T21:58:18.826Z,70.09
2019-01-31T22:00:47.109Z,67.93
2019-01-31T22:03:15.483Z,68.78
2019-01-31T22:05:45.609Z,70.14
2019-01-31T22:08:14.367Z,70.11
2019-01-31T22:10:42.577Z,69.25
2019-01-31T22:13:10.737Z,69.54
2019-01-31T22:15:38.854Z,68.98
2019-01-31T22:18:07.376Z,66.65
2019-01-31T22:20:35.412Z,68.83
2019-01-31T22:23:03.690Z,69.86
2019-01-31T22:25:31.929Z,70.06
2019-01-31T22:28:00.329Z,69.72
2019-01-31T22:30:30.729Z,70.06
2019-01-31T22:32:58.927Z,70.01
2019-01-31T22:35:27.066Z,67.69
2019-01-31T22:37:55.058Z,68.81
2019-01-31T22:40:23.172Z,69.37
2019-01-31T22:42:53.217Z,69.70
2019-01-31T22:45:33.714Z,66.02
2019-01-31T22:48:01.836Z,70.08
2019-01-31T22:50:32.190Z,67.82
2019-01-31T22:53:00.256Z,70.06
2019-01-31T22:55:28.393Z,69.97
2019-01-31T22:57:56.419Z,69.51
2019-01-31T23:01:02.769Z,69.14
2019-01-31T23:03:30.816Z,68.71
2019-01-31T23:05:58.878Z,70.04
2019-01-31T23:08:26.869Z,67.58
2019-01-31T23:10:55.007Z,70.65
2019-01-31T23:13:23.031Z,70.46
2019-01-31T23:15:51.078Z,69.04
2019-01-31T23:18:19.244Z,69.89
2019-01-31T23:20:47.255Z,70.09
2019-01-31T23:23:15.309Z,69.89
2019-01-31T23:25:43.434Z,70.31
2019-01-31T23:28:11.484Z,67.81
2019-01-31T23:30:39.546Z,70.17
2019-01-31T23:33:07.588Z,69.18
2019-01-31T23:35:35.746Z,70.26
2019-01-31T23:38:03.824Z,67.96
2019-01-31T23:40:32.019Z,70.64
2019-01-31T23:43:00.139Z,70.43
2019-01-31T23:45:28.175Z,70.19
2019-01-31T23:47:56.188Z,70.48
2019-01-31T23:50:24.188Z,70.37
2019-01-31T23:52:52.275Z,67.93
2019-01-31T23:55:20.325Z,70.31
2019-01-31T23:57:48.391Z,70.30
